sensor_id;sensor_type;location;lat;lon;timestamp;pressure;altitude;pressure_sealevel;temperature;humidity
46638;BME280;32365;46.938;7.390;2023-03-22T06:45:50;95173.00;;;4.93;85.61
46638;BME280;32365;46.938;7.390;2023-03-22T06:48:16;95168.06;;;5.18;84.28
46638;BME280;32365;46.938;7.390;2023-03-22T06:50:43;95165.66;;;5.44;82.43
46638;BME280;32365;46.938;7.390;2023-03-22T06:53:10;95162.53;;;5.35;82.30
46638;BME280;32365;46.938;7.390;2023-03-22T06:55:36;95161.72;;;5.41;84.05
46638;BME280;32365;46.938;7.390;2023-03-22T06:58:04;95162.91;;;5.45;83.85
46638;BME280;32365;46.938;7.390;2023-03-22T07:00:30;95163.66;;;5.66;82.37
46638;BME280;32365;46.938;7.390;2023-03-22T07:02:59;95156.50;;;5.81;81.38
46638;BME280;32365;46.938;7.390;2023-03-22T07:05:27;95163.56;;;5.99;81.13
46638;BME280;32365;46.938;7.390;2023-03-22T07:07:53;95159.16;;;6.13;80.14
46638;BME280;32365;46.938;7.390;2023-03-22T07:10:20;95156.63;;;6.45;78.65
46638;BME280;32365;46.938;7.390;2023-03-22T07:12:46;95155.66;;;6.78;76.79
46638;BME280;32365;46.938;7.390;2023-03-22T07:15:13;95156.63;;;6.77;78.11
46638;BME280;32365;46.938;7.390;2023-03-22T07:17:41;95164.78;;;7.25;78.57
46638;BME280;32365;46.938;7.390;2023-03-22T07:20:10;95159.06;;;7.42;74.96
46638;BME280;32365;46.938;7.390;2023-03-22T07:22:36;95161.69;;;7.79;75.83
46638;BME280;32365;46.938;7.390;2023-03-22T07:25:04;95158.44;;;8.21;73.36
46638;BME280;32365;46.938;7.390;2023-03-22T07:27:30;95160.19;;;8.57;71.63
46638;BME280;32365;46.938;7.390;2023-03-22T07:29:57;95156.03;;;9.34;68.58
46638;BME280;32365;46.938;7.390;2023-03-22T07:32:23;95157.78;;;10.63;63.76
46638;BME280;32365;46.938;7.390;2023-03-22T07:34:50;95159.59;;;11.48;58.69
46638;BME280;32365;46.938;7.390;2023-03-22T07:37:18;95154.66;;;12.08;59.52
46638;BME280;32365;46.938;7.390;2023-03-22T07:39:44;95148.47;;;13.29;53.63
46638;BME280;32365;46.938;7.390;2023-03-22T07:42:11;95144.94;;;13.07;56.00
46638;BME280;32365;46.938;7.390;2023-03-22T07:44:37;95149.94;;;13.14;52.25
46638;BME280;32365;46.938;7.390;2023-03-22T07:47:04;95156.19;;;14.09;52.75
46638;BME280;32365;46.938;7.390;2023-03-22T07:49:30;95159.25;;;15.21;48.07
46638;BME280;32365;46.938;7.390;2023-03-22T07:51:57;95160.31;;;16.22;44.57
46638;BME280;32365;46.938;7.390;2023-03-22T07:54:26;95168.81;;;15.73;46.62
46638;BME280;32365;46.938;7.390;2023-03-22T07:56:53;95156.56;;;15.73;48.06
46638;BME280;32365;46.938;7.390;2023-03-22T07:59:19;95162.31;;;16.41;44.83
46638;BME280;32365;46.938;7.390;2023-03-22T08:01:46;95157.69;;;15.05;46.43
46638;BME280;32365;46.938;7.390;2023-03-22T08:04:13;95158.56;;;17.32;40.57
46638;BME280;32365;46.938;7.390;2023-03-22T08:06:40;95164.84;;;16.56;42.47
46638;BME280;32365;46.938;7.390;2023-03-22T08:09:08;95156.66;;;15.11;45.42
46638;BME280;32365;46.938;7.390;2023-03-22T08:11:35;95157.50;;;14.07;47.85
46638;BME280;32365;46.938;7.390;2023-03-22T08:14:02;95160.72;;;15.69;44.65
46638;BME280;32365;46.938;7.390;2023-03-22T08:16:28;95159.75;;;17.45;41.79
46638;BME280;32365;46.938;7.390;2023-03-22T08:18:55;95160.47;;;16.46;41.88
46638;BME280;32365;46.938;7.390;2023-03-22T08:21:21;95159.78;;;18.18;39.19
46638;BME280;32365;46.938;7.390;2023-03-22T08:23:48;95163.19;;;19.14;37.28
46638;BME280;32365;46.938;7.390;2023-03-22T08:26:14;95155.59;;;17.44;40.54
46638;BME280;32365;46.938;7.390;2023-03-22T08:28:43;95157.66;;;20.18;36.08
46638;BME280;32365;46.938;7.390;2023-03-22T08:31:10;95155.50;;;17.78;38.52
46638;BME280;32365;46.938;7.390;2023-03-22T08:33:38;95167.00;;;16.44;44.17
46638;BME280;32365;46.938;7.390;2023-03-22T08:36:06;95155.38;;;17.05;41.19
46638;BME280;32365;46.938;7.390;2023-03-22T08:38:33;95162.91;;;16.72;44.00
46638;BME280;32365;46.938;7.390;2023-03-22T08:40:59;95156.50;;;18.50;38.89
46638;BME280;32365;46.938;7.390;2023-03-22T08:43:26;95159.88;;;19.83;37.43
46638;BME280;32365;46.938;7.390;2023-03-22T08:45:54;95150.97;;;19.37;36.11
46638;BME280;32365;46.938;7.390;2023-03-22T08:48:20;95149.50;;;19.17;36.96
46638;BME280;32365;46.938;7.390;2023-03-22T08:50:47;95151.00;;;20.85;34.28
46638;BME280;32365;46.938;7.390;2023-03-22T08:53:13;95145.41;;;23.45;27.56
46638;BME280;32365;46.938;7.390;2023-03-22T08:55:39;95144.56;;;22.53;29.85
46638;BME280;32365;46.938;7.390;2023-03-22T08:58:09;95142.22;;;21.84;30.32
46638;BME280;32365;46.938;7.390;2023-03-22T09:00:35;95151.09;;;22.64;29.03
46638;BME280;32365;46.938;7.390;2023-03-22T09:03:04;95145.50;;;22.83;28.72
46638;BME280;32365;46.938;7.390;2023-03-22T09:05:31;95140.31;;;23.13;28.31
46638;BME280;32365;46.938;7.390;2023-03-22T09:07:57;95140.75;;;21.61;31.56
46638;BME280;32365;46.938;7.390;2023-03-22T09:10:24;95137.69;;;23.22;30.21
46638;BME280;32365;46.938;7.390;2023-03-22T09:12:51;95137.41;;;22.44;31.63
46638;BME280;32365;46.938;7.390;2023-03-22T09:15:17;95136.81;;;20.95;33.98
46638;BME280;32365;46.938;7.390;2023-03-22T09:17:44;95135.38;;;21.43;32.83
46638;BME280;32365;46.938;7.390;2023-03-22T09:20:12;95129.63;;;21.10;33.03
46638;BME280;32365;46.938;7.390;2023-03-22T09:22:38;95125.28;;;21.36;33.11
46638;BME280;32365;46.938;7.390;2023-03-22T09:25:06;95129.50;;;21.78;33.73
46638;BME280;32365;46.938;7.390;2023-03-22T09:27:33;95123.59;;;22.91;31.32
46638;BME280;32365;46.938;7.390;2023-03-22T09:30:00;95129.25;;;20.06;35.24
46638;BME280;32365;46.938;7.390;2023-03-22T09:32:26;95131.94;;;22.14;31.39
46638;BME280;32365;46.938;7.390;2023-03-22T09:34:53;95132.59;;;22.90;30.55
46638;BME280;32365;46.938;7.390;2023-03-22T09:37:21;95128.41;;;22.81;28.73
46638;BME280;32365;46.938;7.390;2023-03-22T09:39:54;95126.69;;;22.85;29.83
46638;BME280;32365;46.938;7.390;2023-03-22T09:42:30;95124.59;;;24.12;28.59
46638;BME280;32365;46.938;7.390;2023-03-22T09:45:00;95119.75;;;24.14;27.06
46638;BME280;32365;46.938;7.390;2023-03-22T09:47:32;95116.44;;;21.64;31.41
46638;BME280;32365;46.938;7.390;2023-03-22T09:50:06;95118.53;;;21.93;32.77
46638;BME280;32365;46.938;7.390;2023-03-22T09:52:35;95121.34;;;21.97;31.35
46638;BME280;32365;46.938;7.390;2023-03-22T09:55:01;95107.06;;;23.39;29.06
46638;BME280;32365;46.938;7.390;2023-03-22T09:57:31;95114.91;;;25.01;25.63
46638;BME280;32365;46.938;7.390;2023-03-22T10:00:00;95106.69;;;23.49;26.85
46638;BME280;32365;46.938;7.390;2023-03-22T10:02:44;95111.00;;;24.22;28.92
46638;BME280;32365;46.938;7.390;2023-03-22T10:05:14;95111.84;;;25.24;26.02
46638;BME280;32365;46.938;7.390;2023-03-22T10:07:57;95105.25;;;23.60;28.01
46638;BME280;32365;46.938;7.390;2023-03-22T10:10:27;95100.22;;;24.27;27.82
46638;BME280;32365;46.938;7.390;2023-03-22T10:12:59;95099.84;;;22.83;31.02
46638;BME280;32365;46.938;7.390;2023-03-22T10:15:34;95093.06;;;26.40;25.01
46638;BME280;32365;46.938;7.390;2023-03-22T10:18:02;95089.06;;;23.32;29.28
46638;BME280;32365;46.938;7.390;2023-03-22T10:20:35;95091.22;;;27.14;23.58
46638;BME280;32365;46.938;7.390;2023-03-22T10:23:06;95090.00;;;26.95;23.31
46638;BME280;32365;46.938;7.390;2023-03-22T10:25:36;95091.50;;;24.48;27.27
46638;BME280;32365;46.938;7.390;2023-03-22T10:28:14;95087.91;;;25.20;27.39
46638;BME280;32365;46.938;7.390;2023-03-22T10:30:42;95076.66;;;28.23;22.76
46638;BME280;32365;46.938;7.390;2023-03-22T10:33:22;95072.63;;;27.78;23.08
46638;BME280;32365;46.938;7.390;2023-03-22T10:35:52;95072.03;;;24.10;25.76
46638;BME280;32365;46.938;7.390;2023-03-22T10:38:23;95071.00;;;23.34;27.39
46638;BME280;32365;46.938;7.390;2023-03-22T10:40:53;95068.25;;;26.33;24.38
46638;BME280;32365;46.938;7.390;2023-03-22T10:43:22;95065.53;;;26.73;26.21
46638;BME280;32365;46.938;7.390;2023-03-22T10:45:52;95066.31;;;27.67;22.67
46638;BME280;32365;46.938;7.390;2023-03-22T10:48:26;95065.00;;;27.28;23.35
46638;BME280;32365;46.938;7.390;2023-03-22T10:50:54;95065.75;;;26.81;23.25
46638;BME280;32365;46.938;7.390;2023-03-22T10:53:28;95069.63;;;28.94;21.43
46638;BME280;32365;46.938;7.390;2023-03-22T10:55:57;95064.22;;;26.67;23.60
46638;BME280;32365;46.938;7.390;2023-03-22T10:58:28;95061.34;;;28.36;21.25
46638;BME280;32365;46.938;7.390;2023-03-22T11:00:56;95058.06;;;27.40;23.54
46638;BME280;32365;46.938;7.390;2023-03-22T11:03:28;95046.38;;;25.98;23.44
46638;BME280;32365;46.938;7.390;2023-03-22T11:06:00;95049.75;;;24.54;26.82
46638;BME280;32365;46.938;7.390;2023-03-22T11:08:37;95045.59;;;26.23;25.64
46638;BME280;32365;46.938;7.390;2023-03-22T11:11:05;95043.09;;;26.42;25.81
46638;BME280;32365;46.938;7.390;2023-03-22T11:13:32;95054.50;;;24.27;27.71
46638;BME280;32365;46.938;7.390;2023-03-22T11:15:59;95042.63;;;26.81;24.50
46638;BME280;32365;46.938;7.390;2023-03-22T11:18:29;95044.63;;;28.00;23.23
46638;BME280;32365;46.938;7.390;2023-03-22T11:20:58;95041.97;;;28.39;22.93
46638;BME280;32365;46.938;7.390;2023-03-22T11:23:26;95038.97;;;26.04;25.74
46638;BME280;32365;46.938;7.390;2023-03-22T11:25:58;95025.88;;;29.41;20.60
46638;BME280;32365;46.938;7.390;2023-03-22T11:28:27;95029.34;;;27.29;23.46
46638;BME280;32365;46.938;7.390;2023-03-22T11:31:00;95023.47;;;28.86;21.67
46638;BME280;32365;46.938;7.390;2023-03-22T11:33:27;95027.69;;;26.48;23.34
46638;BME280;32365;46.938;7.390;2023-03-22T11:35:55;95026.84;;;24.03;27.26
46638;BME280;32365;46.938;7.390;2023-03-22T11:38:27;95020.81;;;25.28;26.01
46638;BME280;32365;46.938;7.390;2023-03-22T11:40:58;95014.28;;;25.75;26.32
46638;BME280;32365;46.938;7.390;2023-03-22T11:43:30;95012.69;;;26.40;22.69
46638;BME280;32365;46.938;7.390;2023-03-22T11:45:58;95006.97;;;27.30;21.96
46638;BME280;32365;46.938;7.390;2023-03-22T11:48:28;95010.91;;;29.10;20.54
46638;BME280;32365;46.938;7.390;2023-03-22T11:51:02;94996.94;;;29.70;20.06
46638;BME280;32365;46.938;7.390;2023-03-22T11:53:31;94985.94;;;29.45;19.24
46638;BME280;32365;46.938;7.390;2023-03-22T11:56:01;94987.63;;;28.83;18.67
46638;BME280;32365;46.938;7.390;2023-03-22T11:58:54;94988.38;;;30.15;17.81
46638;BME280;32365;46.938;7.390;2023-03-22T12:01:35;94985.06;;;29.37;19.87
46638;BME280;32365;46.938;7.390;2023-03-22T12:04:06;94988.91;;;29.67;17.66
46638;BME280;32365;46.938;7.390;2023-03-22T12:06:37;94974.66;;;30.50;18.10
46638;BME280;32365;46.938;7.390;2023-03-22T12:09:09;94972.47;;;29.91;16.88
46638;BME280;32365;46.938;7.390;2023-03-22T12:11:42;94975.13;;;29.61;17.18
46638;BME280;32365;46.938;7.390;2023-03-22T12:14:15;94978.66;;;29.42;16.38
46638;BME280;32365;46.938;7.390;2023-03-22T12:16:46;94965.41;;;29.76;16.22
46638;BME280;32365;46.938;7.390;2023-03-22T12:19:21;94970.06;;;28.36;18.20
46638;BME280;32365;46.938;7.390;2023-03-22T12:21:51;94963.59;;;29.03;16.70
46638;BME280;32365;46.938;7.390;2023-03-22T12:24:25;94963.13;;;28.97;16.82
46638;BME280;32365;46.938;7.390;2023-03-22T12:26:57;94957.41;;;29.49;15.64
46638;BME280;32365;46.938;7.390;2023-03-22T12:29:25;94956.56;;;29.41;16.76
46638;BME280;32365;46.938;7.390;2023-03-22T12:31:59;94953.56;;;29.19;17.46
46638;BME280;32365;46.938;7.390;2023-03-22T12:34:35;94951.28;;;29.45;17.90
46638;BME280;32365;46.938;7.390;2023-03-22T12:37:04;94955.06;;;28.70;18.21
46638;BME280;32365;46.938;7.390;2023-03-22T12:39:36;94952.00;;;28.06;18.77
46638;BME280;32365;46.938;7.390;2023-03-22T12:42:14;94939.66;;;26.30;20.22
46638;BME280;32365;46.938;7.390;2023-03-22T12:44:44;94954.16;;;28.00;19.93
46638;BME280;32365;46.938;7.390;2023-03-22T12:47:17;94952.88;;;27.74;19.69
46638;BME280;32365;46.938;7.390;2023-03-22T12:49:51;94947.53;;;28.10;19.26
46638;BME280;32365;46.938;7.390;2023-03-22T12:52:23;94944.28;;;28.01;19.18
46638;BME280;32365;46.938;7.390;2023-03-22T12:54:51;94937.38;;;27.76;20.99
46638;BME280;32365;46.938;7.390;2023-03-22T12:57:20;94936.75;;;28.46;20.65
46638;BME280;32365;46.938;7.390;2023-03-22T12:59:49;94935.44;;;27.96;20.30
46638;BME280;32365;46.938;7.390;2023-03-22T13:02:18;94929.09;;;28.21;20.51
46638;BME280;32365;46.938;7.390;2023-03-22T13:04:51;94935.28;;;28.25;20.47
46638;BME280;32365;46.938;7.390;2023-03-22T13:07:33;94933.25;;;28.41;20.85
46638;BME280;32365;46.938;7.390;2023-03-22T13:13:15;94924.81;;;27.57;21.08
46638;BME280;32365;46.938;7.390;2023-03-22T13:15:57;94921.06;;;28.40;21.25
46638;BME280;32365;46.938;7.390;2023-03-22T13:18:29;94923.44;;;28.46;21.10
46638;BME280;32365;46.938;7.390;2023-03-22T13:21:12;94920.38;;;28.20;19.55
46638;BME280;32365;46.938;7.390;2023-03-22T13:23:57;94916.41;;;28.34;21.56
46638;BME280;32365;46.938;7.390;2023-03-22T13:26:31;94910.47;;;27.62;21.15
46638;BME280;32365;46.938;7.390;2023-03-22T13:29:06;94899.22;;;27.33;22.68
46638;BME280;32365;46.938;7.390;2023-03-22T13:31:37;94897.91;;;27.43;22.56
46638;BME280;32365;46.938;7.390;2023-03-22T13:34:13;94904.44;;;28.04;21.34
46638;BME280;32365;46.938;7.390;2023-03-22T13:36:49;94900.91;;;28.39;20.91
46638;BME280;32365;46.938;7.390;2023-03-22T13:39:16;94893.28;;;27.75;21.00
46638;BME280;32365;46.938;7.390;2023-03-22T13:41:46;94884.97;;;27.06;22.08
46638;BME280;32365;46.938;7.390;2023-03-22T13:44:26;94881.53;;;27.76;21.85
46638;BME280;32365;46.938;7.390;2023-03-22T13:46:57;94879.53;;;27.18;21.42
46638;BME280;32365;46.938;7.390;2023-03-22T13:49:49;94874.09;;;27.11;21.67
46638;BME280;32365;46.938;7.390;2023-03-22T13:52:24;94872.84;;;27.24;21.66
46638;BME280;32365;46.938;7.390;2023-03-22T13:54:54;94862.47;;;26.51;22.50
46638;BME280;32365;46.938;7.390;2023-03-22T13:57:37;94862.63;;;26.58;22.78
46638;BME280;32365;46.938;7.390;2023-03-22T14:00:18;94859.34;;;27.13;21.62
46638;BME280;32365;46.938;7.390;2023-03-22T14:02:45;94858.66;;;27.95;21.52
46638;BME280;32365;46.938;7.390;2023-03-22T14:05:14;94864.84;;;27.60;20.81
46638;BME280;32365;46.938;7.390;2023-03-22T14:07:43;94853.72;;;27.34;20.98
46638;BME280;32365;46.938;7.390;2023-03-22T14:10:15;94848.34;;;26.63;21.62
46638;BME280;32365;46.938;7.390;2023-03-22T14:12:49;94847.31;;;26.68;22.32
46638;BME280;32365;46.938;7.390;2023-03-22T14:15:21;94853.06;;;26.70;22.68
46638;BME280;32365;46.938;7.390;2023-03-22T14:17:51;94851.00;;;26.79;21.15
46638;BME280;32365;46.938;7.390;2023-03-22T14:20:24;94849.75;;;25.96;22.28
46638;BME280;32365;46.938;7.390;2023-03-22T14:22:54;94852.00;;;26.74;22.35
46638;BME280;32365;46.938;7.390;2023-03-22T14:25:26;94849.78;;;26.61;22.22
46638;BME280;32365;46.938;7.390;2023-03-22T14:27:54;94842.72;;;27.16;21.42
46638;BME280;32365;46.938;7.390;2023-03-22T14:30:34;94843.03;;;27.50;21.26
46638;BME280;32365;46.938;7.390;2023-03-22T14:33:05;94846.56;;;27.39;22.44
46638;BME280;32365;46.938;7.390;2023-03-22T14:35:34;94840.41;;;27.34;22.13
46638;BME280;32365;46.938;7.390;2023-03-22T14:38:04;94841.53;;;27.73;21.32
46638;BME280;32365;46.938;7.390;2023-03-22T14:40:33;94840.75;;;27.13;22.25
46638;BME280;32365;46.938;7.390;2023-03-22T14:43:22;94835.53;;;27.01;22.60
46638;BME280;32365;46.938;7.390;2023-03-22T14:46:00;94834.50;;;27.06;23.53
46638;BME280;32365;46.938;7.390;2023-03-22T14:48:30;94837.09;;;28.20;20.48
46638;BME280;32365;46.938;7.390;2023-03-22T14:51:00;94828.09;;;28.28;21.22
46638;BME280;32365;46.938;7.390;2023-03-22T14:53:28;94827.66;;;28.49;19.96
46638;BME280;32365;46.938;7.390;2023-03-22T14:55:55;94826.44;;;28.20;20.79
46638;BME280;32365;46.938;7.390;2023-03-22T14:58:26;94836.19;;;27.49;20.96
46638;BME280;32365;46.938;7.390;2023-03-22T15:00:59;94824.75;;;27.29;21.33
46638;BME280;32365;46.938;7.390;2023-03-22T15:03:27;94815.56;;;27.86;19.73
46638;BME280;32365;46.938;7.390;2023-03-22T15:05:56;94821.03;;;28.39;20.69
46638;BME280;32365;46.938;7.390;2023-03-22T15:08:25;94828.34;;;28.19;21.65
46638;BME280;32365;46.938;7.390;2023-03-22T15:10:54;94818.25;;;27.46;22.70
46638;BME280;32365;46.938;7.390;2023-03-22T15:13:22;94821.81;;;27.34;22.96
46638;BME280;32365;46.938;7.390;2023-03-22T15:15:50;94813.00;;;27.70;21.68
46638;BME280;32365;46.938;7.390;2023-03-22T15:18:20;94814.34;;;26.85;22.38
46638;BME280;32365;46.938;7.390;2023-03-22T15:20:48;94801.97;;;26.25;23.52
46638;BME280;32365;46.938;7.390;2023-03-22T15:23:17;94810.28;;;25.50;23.78
46638;BME280;32365;46.938;7.390;2023-03-22T15:25:45;94807.34;;;24.74;23.87
46638;BME280;32365;46.938;7.390;2023-03-22T15:28:14;94794.75;;;24.09;25.26
46638;BME280;32365;46.938;7.390;2023-03-22T15:30:44;94795.63;;;24.25;23.05
46638;BME280;32365;46.938;7.390;2023-03-22T15:33:21;94790.66;;;24.11;24.12
46638;BME280;32365;46.938;7.390;2023-03-22T15:35:49;94797.81;;;23.98;23.21
46638;BME280;32365;46.938;7.390;2023-03-22T15:38:22;94797.00;;;23.31;24.42
46638;BME280;32365;46.938;7.390;2023-03-22T15:40:51;94795.34;;;22.96;25.03
46638;BME280;32365;46.938;7.390;2023-03-22T15:43:31;94789.56;;;23.03;24.35
46638;BME280;32365;46.938;7.390;2023-03-22T15:46:16;94784.81;;;23.17;24.29
46638;BME280;32365;46.938;7.390;2023-03-22T15:48:46;94786.50;;;23.22;24.74
46638;BME280;32365;46.938;7.390;2023-03-22T15:51:15;94788.69;;;22.69;24.59
46638;BME280;32365;46.938;7.390;2023-03-22T15:53:44;94781.75;;;22.64;24.98
46638;BME280;32365;46.938;7.390;2023-03-22T15:56:23;94783.06;;;22.49;24.84
46638;BME280;32365;46.938;7.390;2023-03-22T15:58:52;94785.72;;;22.70;25.26
46638;BME280;32365;46.938;7.390;2023-03-22T16:01:19;94777.72;;;22.58;24.80
46638;BME280;32365;46.938;7.390;2023-03-22T16:03:52;94783.25;;;21.96;25.64
46638;BME280;32365;46.938;7.390;2023-03-22T16:06:21;94787.78;;;21.78;26.84
46638;BME280;32365;46.938;7.390;2023-03-22T16:08:47;94783.81;;;21.63;27.03
46638;BME280;32365;46.938;7.390;2023-03-22T16:11:14;94786.91;;;21.21;27.15
46638;BME280;32365;46.938;7.390;2023-03-22T16:13:42;94788.59;;;20.91;26.47
46638;BME280;32365;46.938;7.390;2023-03-22T16:16:10;94790.41;;;20.82;27.21
46638;BME280;32365;46.938;7.390;2023-03-22T16:18:37;94784.59;;;20.53;27.67
46638;BME280;32365;46.938;7.390;2023-03-22T16:21:08;94793.41;;;20.49;28.88
46638;BME280;32365;46.938;7.390;2023-03-22T16:23:35;94793.84;;;19.79;31.72
46638;BME280;32365;46.938;7.390;2023-03-22T16:26:01;94803.31;;;20.11;29.07
46638;BME280;32365;46.938;7.390;2023-03-22T16:28:28;94801.75;;;20.02;30.54
46638;BME280;32365;46.938;7.390;2023-03-22T16:30:54;94801.69;;;19.93;31.82
46638;BME280;32365;46.938;7.390;2023-03-22T16:33:21;94805.38;;;19.69;33.24
46638;BME280;32365;46.938;7.390;2023-03-22T16:35:47;94806.31;;;19.73;32.67
46638;BME280;32365;46.938;7.390;2023-03-22T16:38:16;94804.34;;;19.33;33.91
46638;BME280;32365;46.938;7.390;2023-03-22T16:40:44;94808.28;;;18.57;36.17
46638;BME280;32365;46.938;7.390;2023-03-22T16:43:11;94812.34;;;18.36;36.00
46638;BME280;32365;46.938;7.390;2023-03-22T16:45:38;94819.63;;;18.67;35.19
46638;BME280;32365;46.938;7.390;2023-03-22T16:48:05;94821.09;;;18.73;34.64
46638;BME280;32365;46.938;7.390;2023-03-22T16:50:33;94825.75;;;18.34;34.55
46638;BME280;32365;46.938;7.390;2023-03-22T16:53:00;94819.72;;;18.48;34.49
46638;BME280;32365;46.938;7.390;2023-03-22T16:55:30;94823.28;;;18.24;35.59
46638;BME280;32365;46.938;7.390;2023-03-22T16:57:58;94827.16;;;17.79;37.65
46638;BME280;32365;46.938;7.390;2023-03-22T17:00:25;94822.00;;;17.74;37.41
46638;BME280;32365;46.938;7.390;2023-03-22T17:02:54;94828.91;;;17.51;39.50
46638;BME280;32365;46.938;7.390;2023-03-22T17:05:23;94827.31;;;17.36;37.67
46638;BME280;32365;46.938;7.390;2023-03-22T17:07:51;94839.44;;;17.46;37.39
46638;BME280;32365;46.938;7.390;2023-03-22T17:10:18;94834.38;;;17.35;37.90
46638;BME280;32365;46.938;7.390;2023-03-22T17:12:46;94827.81;;;17.19;39.12
46638;BME280;32365;46.938;7.390;2023-03-22T17:15:29;94832.44;;;17.03;38.99
46638;BME280;32365;46.938;7.390;2023-03-22T17:17:57;94840.63;;;16.96;39.67
46638;BME280;32365;46.938;7.390;2023-03-22T17:20:24;94832.06;;;16.42;41.25
46638;BME280;32365;46.938;7.390;2023-03-22T17:22:51;94836.97;;;16.49;40.88
46638;BME280;32365;46.938;7.390;2023-03-22T17:25:20;94835.97;;;16.20;41.22
46638;BME280;32365;46.938;7.390;2023-03-22T17:27:49;94845.59;;;15.95;42.61
46638;BME280;32365;46.938;7.390;2023-03-22T17:30:16;94830.53;;;15.87;42.36
46638;BME280;32365;46.938;7.390;2023-03-22T17:32:42;94841.25;;;15.80;43.16
46638;BME280;32365;46.938;7.390;2023-03-22T17:35:11;94841.53;;;15.79;42.87
46638;BME280;32365;46.938;7.390;2023-03-22T17:37:38;94844.16;;;15.74;40.85
46638;BME280;32365;46.938;7.390;2023-03-22T17:40:06;94842.81;;;15.87;40.91
46638;BME280;32365;46.938;7.390;2023-03-22T17:42:33;94839.78;;;15.64;41.98
46638;BME280;32365;46.938;7.390;2023-03-22T17:45:01;94845.97;;;15.44;42.44
46638;BME280;32365;46.938;7.390;2023-03-22T17:47:29;94855.97;;;15.26;44.81
46638;BME280;32365;46.938;7.390;2023-03-22T17:49:56;94851.56;;;15.16;44.82
46638;BME280;32365;46.938;7.390;2023-03-22T17:52:22;94856.31;;;15.14;45.24
46638;BME280;32365;46.938;7.390;2023-03-22T17:54:49;94859.22;;;15.02;47.07
46638;BME280;32365;46.938;7.390;2023-03-22T17:57:16;94851.97;;;14.94;46.47
46638;BME280;32365;46.938;7.390;2023-03-22T17:59:43;94861.13;;;14.81;45.81
46638;BME280;32365;46.938;7.390;2023-03-22T18:02:13;94856.50;;;14.57;46.26
46638;BME280;32365;46.938;7.390;2023-03-22T18:04:40;94852.88;;;14.53;46.79
46638;BME280;32365;46.938;7.390;2023-03-22T18:07:07;94857.84;;;14.44;47.04
46638;BME280;32365;46.938;7.390;2023-03-22T18:09:33;94864.84;;;14.44;47.93
46638;BME280;32365;46.938;7.390;2023-03-22T18:12:00;94862.53;;;14.47;47.60
46638;BME280;32365;46.938;7.390;2023-03-22T18:14:26;94869.78;;;14.56;47.00
46638;BME280;32365;46.938;7.390;2023-03-22T18:16:53;94869.28;;;14.43;47.58
46638;BME280;32365;46.938;7.390;2023-03-22T18:19:20;94880.53;;;14.28;48.14
46638;BME280;32365;46.938;7.390;2023-03-22T18:21:52;94880.56;;;13.92;48.96
46638;BME280;32365;46.938;7.390;2023-03-22T18:24:19;94883.16;;;13.82;49.22
46638;BME280;32365;46.938;7.390;2023-03-22T18:26:45;94882.38;;;13.71;49.47
46638;BME280;32365;46.938;7.390;2023-03-22T18:29:12;94887.81;;;13.64;50.37
46638;BME280;32365;46.938;7.390;2023-03-22T18:31:38;94889.63;;;13.59;50.12
46638;BME280;32365;46.938;7.390;2023-03-22T18:34:05;94883.88;;;13.46;51.00
46638;BME280;32365;46.938;7.390;2023-03-22T18:36:32;94880.97;;;13.32;51.47
46638;BME280;32365;46.938;7.390;2023-03-22T18:39:00;94881.28;;;13.46;52.07
46638;BME280;32365;46.938;7.390;2023-03-22T18:41:29;94889.38;;;13.55;51.35
46638;BME280;32365;46.938;7.390;2023-03-22T18:43:56;94886.97;;;13.38;51.43
46638;BME280;32365;46.938;7.390;2023-03-22T18:46:22;94880.69;;;13.23;50.73
46638;BME280;32365;46.938;7.390;2023-03-22T18:48:49;94885.38;;;13.16;50.18
46638;BME280;32365;46.938;7.390;2023-03-22T18:51:15;94888.78;;;13.32;50.35
46638;BME280;32365;46.938;7.390;2023-03-22T18:53:43;94881.47;;;13.24;50.75
46638;BME280;32365;46.938;7.390;2023-03-22T18:56:09;94877.00;;;13.09;49.48
46638;BME280;32365;46.938;7.390;2023-03-22T18:58:37;94886.59;;;13.03;50.19
46638;BME280;32365;46.938;7.390;2023-03-22T19:01:03;94894.44;;;13.14;49.99
46638;BME280;32365;46.938;7.390;2023-03-22T19:03:31;94885.28;;;12.96;50.61
46638;BME280;32365;46.938;7.390;2023-03-22T19:06:04;94899.56;;;12.93;49.15
46638;BME280;32365;46.938;7.390;2023-03-22T19:08:30;94890.19;;;12.87;49.58
46638;BME280;32365;46.938;7.390;2023-03-22T19:10:58;94890.66;;;12.78;48.75
46638;BME280;32365;46.938;7.390;2023-03-22T19:13:25;94892.53;;;12.88;48.97
46638;BME280;32365;46.938;7.390;2023-03-22T19:15:52;94888.88;;;12.79;49.39
46638;BME280;32365;46.938;7.390;2023-03-22T19:18:18;94882.56;;;12.65;50.62
46638;BME280;32365;46.938;7.390;2023-03-22T19:20:44;94884.88;;;12.61;51.80
46638;BME280;32365;46.938;7.390;2023-03-22T19:23:11;94889.06;;;12.62;51.60
46638;BME280;32365;46.938;7.390;2023-03-22T19:25:37;94887.06;;;12.31;52.25
46638;BME280;32365;46.938;7.390;2023-03-22T19:28:06;94883.66;;;12.26;53.79
46638;BME280;32365;46.938;7.390;2023-03-22T19:30:32;94889.00;;;12.14;53.37
46638;BME280;32365;46.938;7.390;2023-03-22T19:32:59;94885.81;;;12.01;53.05
46638;BME280;32365;46.938;7.390;2023-03-22T19:35:26;94886.84;;;12.00;53.19
46638;BME280;32365;46.938;7.390;2023-03-22T19:37:52;94889.28;;;11.85;55.31
46638;BME280;32365;46.938;7.390;2023-03-22T19:40:19;94888.78;;;11.88;57.11
46638;BME280;32365;46.938;7.390;2023-03-22T19:42:45;94885.38;;;11.82;55.52
46638;BME280;32365;46.938;7.390;2023-03-22T19:45:13;94885.78;;;11.69;54.86
46638;BME280;32365;46.938;7.390;2023-03-22T19:47:40;94879.44;;;11.87;53.08
46638;BME280;32365;46.938;7.390;2023-03-22T19:50:08;94879.44;;;11.87;54.86
46638;BME280;32365;46.938;7.390;2023-03-22T19:52:35;94879.53;;;11.65;54.44
46638;BME280;32365;46.938;7.390;2023-03-22T19:55:02;94875.72;;;11.73;54.88
46638;BME280;32365;46.938;7.390;2023-03-22T19:57:29;94869.38;;;11.63;55.17
46638;BME280;32365;46.938;7.390;2023-03-22T19:59:57;94873.06;;;11.67;55.34